Aosta, Italy

08:43 AM CEST del 29 Settembre 2016 (GMT +0200)
Senin, Saint-Christophe | | Change Station

Alt. 2392 ft 45.75 °N, 7.34 °E | Updated 28 seconds ago

Clear
Sereno
53.8 °F
Sembra 53.8 °F
N
0.0
Vento Variabile Vento da Sud
Gusts 0.0 mph

Oggi
Massima -- | Minima -- °F
--% Possibilità di precip.
Ieri
Massima -- | Minima -- °F
Precip. -- in
Pressione 30.39 in
Visibilità -9999.0 miglia
Nuvole
Punto di rugiada 48 °F
Umidità 82%
Piovosità 0.00 in
Spessore del manto nevoso Non disponibile.
7:26 AM 7:14 PM
Luna calante, 3% visible
METAR LSGS 290620Z VRB02KT CAVOK 10/08 Q1029
Pressione 30.39 in
Visibilità -9999.0 miglia
Nuvole
Punto di rugiada 48 °F
Umidità 82%
Piovosità 0.00 in
Spessore del manto nevoso Non disponibile.
7:26 AM 7:14 PM
Luna calante, 3% visible
METAR LSGS 290620Z VRB02KT CAVOK 10/08 Q1029

10-Day Weather Forecast

×

Almanac

Astronomia

Sep. 29, 2016 Alba Tramonto
Ora attuale
Crepuscolo civile
Crepuscolo nautico
Crepuscolo astronomico
Luna
Estensione della luce visibile
Lunghezza del giorno
Tomorrow will be .
, % of the Moon is Illuminated

Gli estremi di oggi

Massime Regione Minime Regione

Community

WunderPhotos

Upload Photos

1,942,446 foto caricate!

WunderBlog® & News

Nearby

Qualità dell'aria

  Qualità dell'aria Indice AQ Inquinante
Not available.

Profondità neve

Stazione Profondità Altitudine

Attività sismica

Città  Distanza Mag. Data & Ora
Minimo Magnitudo Mostrato è 2.5.

Temperature delle acque costiere

Località Temperatura

Stations

Stazioni meteo nelle vicinanze

Ubicazione della stazione Temp. Raffreddamento del vento Punto di rugiada Umidità Vento Precip. Alt. Aggiornato Tipo